RYR551A LEGE-EGNM
Flight info
| Callsign | RYR551A |
|---|---|
| Flight time | N/A |
| Altitude | 38000 |
| Route | GEANT DCT ROCAN DCT TOU DCT TUPAR UN861 ANG DCT AKIKI UN867 AVANT UM184 HEMEL T420 TNT N57 DENBY DCT LBA |
| Aircraft | B738/M-SDE2E3FGHIRWXY/LB1 |
Departure
| Time | 2026-04-28 16:54 |
|---|---|
| Airport | Girona-Costa Brava Airport (LEGE) |
Arrival
| Time | N/A |
|---|---|
| Airport | Leeds Bradford Airport (EGNM) |
| Time | Latitude | Longitude | Altitude | Speed | Heading |
|---|---|---|---|---|---|
| 2026-04-28 16:15 | 41.89731 | 2.76433 | 407 ft | 0 kts | 106° |
| 2026-04-28 16:42 | 41.89734 | 2.76418 | 416 ft | 4 kts | 100° |
| 2026-04-28 16:43 | 41.89735 | 2.76384 | 414 ft | 4 kts | 71° |
| 2026-04-28 16:43 | 41.89721 | 2.76355 | 411 ft | 4 kts | 36° |
| 2026-04-28 16:43 | 41.89698 | 2.76340 | 407 ft | 2 kts | 17° |
| 2026-04-28 16:43 | 41.89696 | 2.76339 | 407 ft | 1 kts | 16° |
| 2026-04-28 16:47 | 41.89697 | 2.76340 | 407 ft | 1 kts | 16° |
| 2026-04-28 16:47 | 41.89722 | 2.76349 | 408 ft | 8 kts | 16° |
| 2026-04-28 16:47 | 41.89799 | 2.76379 | 419 ft | 14 kts | 16° |
| 2026-04-28 16:47 | 41.89889 | 2.76360 | 416 ft | 15 kts | 303° |
| 2026-04-28 16:48 | 41.89924 | 2.76235 | 423 ft | 14 kts | 325° |
| 2026-04-28 16:48 | 41.90015 | 2.76258 | 427 ft | 14 kts | 18° |
| 2026-04-28 16:48 | 41.90107 | 2.76292 | 422 ft | 13 kts | 14° |
| 2026-04-28 16:48 | 41.90195 | 2.76324 | 434 ft | 13 kts | 15° |
| 2026-04-28 16:49 | 41.90282 | 2.76358 | 427 ft | 14 kts | 16° |
| 2026-04-28 16:49 | 41.90382 | 2.76396 | 438 ft | 17 kts | 15° |
| 2026-04-28 16:49 | 41.90503 | 2.76441 | 435 ft | 20 kts | 15° |
| 2026-04-28 16:49 | 41.90641 | 2.76493 | 435 ft | 21 kts | 17° |
| 2026-04-28 16:50 | 41.90780 | 2.76547 | 454 ft | 21 kts | 15° |
| 2026-04-28 16:50 | 41.90916 | 2.76598 | 460 ft | 20 kts | 15° |
| 2026-04-28 16:50 | 41.91057 | 2.76652 | 462 ft | 22 kts | 16° |
| 2026-04-28 16:50 | 41.91212 | 2.76710 | 464 ft | 25 kts | 15° |
| 2026-04-28 16:51 | 41.91378 | 2.76768 | 466 ft | 19 kts | 6° |
| 2026-04-28 16:51 | 41.91435 | 2.76743 | 467 ft | 0 kts | 329° |
| 2026-04-28 16:52 | 41.91445 | 2.76735 | 469 ft | 4 kts | 330° |
| 2026-04-28 16:52 | 41.91489 | 2.76700 | 472 ft | 11 kts | 330° |
| 2026-04-28 16:52 | 41.91540 | 2.76629 | 476 ft | 7 kts | 270° |
| 2026-04-28 16:52 | 41.91504 | 2.76587 | 476 ft | 7 kts | 194° |
| 2026-04-28 16:53 | 41.91456 | 2.76572 | 474 ft | 7 kts | 196° |
| 2026-04-28 16:53 | 41.91409 | 2.76554 | 472 ft | 7 kts | 196° |
| 2026-04-28 16:53 | 41.91200 | 2.76472 | 469 ft | 76 kts | 196° |
| 2026-04-28 16:53 | 41.90388 | 2.76166 | 465 ft | 161 kts | 196° |
| 2026-04-28 16:54 | 41.89166 | 2.75716 | 1147 ft | 184 kts | 195° |
| 2026-04-28 16:54 | 41.87915 | 2.75274 | 2335 ft | 182 kts | 195° |
| 2026-04-28 16:54 | 41.86612 | 2.74817 | 3188 ft | 205 kts | 195° |
| 2026-04-28 16:54 | 41.85667 | 2.74485 | 3515 ft | 215 kts | 195° |
| 2026-04-28 16:55 | 41.83714 | 2.73801 | 4187 ft | 223 kts | 195° |
| 2026-04-28 16:55 | 41.82198 | 2.73270 | 4826 ft | 225 kts | 195° |
| 2026-04-28 16:55 | 41.80733 | 2.72549 | 5503 ft | 225 kts | 210° |
| 2026-04-28 16:55 | 41.79496 | 2.71267 | 6158 ft | 227 kts | 227° |
| 2026-04-28 16:56 | 41.78604 | 2.69499 | 6817 ft | 230 kts | 246° |
| 2026-04-28 16:56 | 41.78175 | 2.67434 | 7477 ft | 233 kts | 264° |
| 2026-04-28 16:56 | 41.78259 | 2.65289 | 8136 ft | 236 kts | 283° |
| 2026-04-28 16:56 | 41.78868 | 2.63248 | 8803 ft | 239 kts | 302° |
| 2026-04-28 16:57 | 41.79958 | 2.61560 | 9479 ft | 242 kts | 321° |
| 2026-04-28 16:57 | 41.81439 | 2.60460 | 10150 ft | 246 kts | 342° |
| 2026-04-28 16:57 | 41.83129 | 2.60040 | 10836 ft | 248 kts | 355° |
| 2026-04-28 16:57 | 41.84870 | 2.59894 | 11510 ft | 252 kts | 357° |
| 2026-04-28 16:58 | 41.86627 | 2.59784 | 12194 ft | 254 kts | 357° |
| 2026-04-28 16:58 | 41.88406 | 2.59672 | 12884 ft | 257 kts | 357° |
| 2026-04-28 16:58 | 41.90178 | 2.59554 | 13564 ft | 259 kts | 356° |
| 2026-04-28 16:58 | 41.91992 | 2.59427 | 14250 ft | 262 kts | 356° |
| 2026-04-28 16:59 | 41.93825 | 2.59293 | 14939 ft | 265 kts | 356° |
| 2026-04-28 16:59 | 41.95649 | 2.59156 | 15493 ft | 255 kts | 356° |
| 2026-04-28 16:59 | 41.97405 | 2.59023 | 15483 ft | 253 kts | 356° |
| 2026-04-28 16:59 | 41.99194 | 2.58885 | 15597 ft | 262 kts | 356° |
| 2026-04-28 17:00 | 42.01052 | 2.58741 | 15961 ft | 271 kts | 356° |
| 2026-04-28 17:00 | 42.02951 | 2.58593 | 16398 ft | 282 kts | 356° |
| 2026-04-28 17:00 | 42.04945 | 2.58438 | 16933 ft | 289 kts | 356° |
| 2026-04-28 17:00 | 42.06912 | 2.58285 | 17912 ft | 279 kts | 356° |
| 2026-04-28 17:01 | 42.08857 | 2.58134 | 18627 ft | 279 kts | 356° |
| 2026-04-28 17:01 | 42.10760 | 2.57599 | 18997 ft | 278 kts | 333° |
| 2026-04-28 17:01 | 42.12434 | 2.56171 | 19177 ft | 295 kts | 321° |
| 2026-04-28 17:01 | 42.14043 | 2.54366 | 19350 ft | 315 kts | 319° |
| 2026-04-28 17:02 | 42.15759 | 2.52373 | 19513 ft | 335 kts | 319° |
| 2026-04-28 17:02 | 42.16981 | 2.50977 | 19605 ft | 348 kts | 319° |
| 2026-04-28 17:02 | 42.19547 | 2.48104 | 19783 ft | 374 kts | 320° |
| 2026-04-28 17:02 | 42.21606 | 2.45820 | 19908 ft | 392 kts | 320° |
| 2026-04-28 17:03 | 42.25966 | 2.40977 | 20489 ft | 413 kts | 320° |
| 2026-04-28 17:03 | 42.28157 | 2.38536 | 21043 ft | 416 kts | 320° |
| 2026-04-28 17:03 | 42.30394 | 2.36042 | 21621 ft | 417 kts | 320° |
| 2026-04-28 17:04 | 42.34910 | 2.30999 | 22582 ft | 424 kts | 320° |
| 2026-04-28 17:04 | 42.37195 | 2.28443 | 23046 ft | 427 kts | 320° |
| 2026-04-28 17:05 | 42.41773 | 2.23317 | 23935 ft | 433 kts | 320° |
| 2026-04-28 17:05 | 42.44149 | 2.20653 | 24375 ft | 436 kts | 320° |
| 2026-04-28 17:05 | 42.46467 | 2.18062 | 24786 ft | 439 kts | 320° |
| 2026-04-28 17:06 | 42.51206 | 2.12771 | 25577 ft | 444 kts | 320° |
| 2026-04-28 17:06 | 42.53598 | 2.10096 | 25956 ft | 447 kts | 320° |
| 2026-04-28 17:06 | 42.58420 | 2.04689 | 26667 ft | 451 kts | 320° |
| 2026-04-28 17:07 | 42.60822 | 2.01991 | 27007 ft | 454 kts | 320° |
| 2026-04-28 17:07 | 42.63266 | 1.99244 | 27338 ft | 456 kts | 320° |
| 2026-04-28 17:07 | 42.65718 | 1.96494 | 27656 ft | 458 kts | 321° |
| 2026-04-28 17:07 | 42.68332 | 1.94008 | 27944 ft | 461 kts | 329° |
| 2026-04-28 17:08 | 42.71226 | 1.92051 | 28252 ft | 463 kts | 335° |
| 2026-04-28 17:08 | 42.74176 | 1.90244 | 28554 ft | 465 kts | 336° |
| 2026-04-28 17:08 | 42.77143 | 1.88459 | 28830 ft | 468 kts | 336° |
| 2026-04-28 17:08 | 42.80090 | 1.86681 | 29101 ft | 470 kts | 335° |
| 2026-04-28 17:09 | 42.83083 | 1.84856 | 29371 ft | 472 kts | 335° |
| 2026-04-28 17:09 | 42.86088 | 1.83003 | 29638 ft | 474 kts | 335° |
| 2026-04-28 17:09 | 42.89086 | 1.81139 | 29948 ft | 474 kts | 335° |
| 2026-04-28 17:09 | 42.92090 | 1.79262 | 30338 ft | 472 kts | 335° |
| 2026-04-28 17:10 | 42.94064 | 1.78024 | 30599 ft | 471 kts | 335° |
| 2026-04-28 17:10 | 42.97047 | 1.76152 | 30993 ft | 470 kts | 335° |
| 2026-04-28 17:10 | 43.00989 | 1.73675 | 31430 ft | 470 kts | 335° |
| 2026-04-28 17:10 | 43.03956 | 1.71809 | 31747 ft | 469 kts | 335° |
| 2026-04-28 17:11 | 43.05965 | 1.70545 | 31975 ft | 469 kts | 335° |
| 2026-04-28 17:11 | 43.08924 | 1.68681 | 32317 ft | 468 kts | 335° |
| 2026-04-28 17:11 | 43.11876 | 1.66821 | 32642 ft | 467 kts | 335° |
| 2026-04-28 17:11 | 43.14790 | 1.64982 | 32939 ft | 467 kts | 335° |
| 2026-04-28 17:12 | 43.17741 | 1.63119 | 33237 ft | 466 kts | 335° |
| 2026-04-28 17:12 | 43.20687 | 1.61257 | 33552 ft | 465 kts | 335° |
| 2026-04-28 17:12 | 43.23627 | 1.59396 | 33849 ft | 465 kts | 335° |
| 2026-04-28 17:12 | 43.26564 | 1.57535 | 34130 ft | 464 kts | 335° |
| 2026-04-28 17:13 | 43.28904 | 1.56051 | 34354 ft | 464 kts | 335° |
| 2026-04-28 17:13 | 43.31835 | 1.54191 | 34632 ft | 460 kts | 335° |
| 2026-04-28 17:13 | 43.34729 | 1.52354 | 34885 ft | 456 kts | 335° |
| 2026-04-28 17:13 | 43.37601 | 1.50530 | 35112 ft | 453 kts | 335° |
| 2026-04-28 17:14 | 43.40190 | 1.48886 | 35303 ft | 450 kts | 335° |
| 2026-04-28 17:14 | 43.43024 | 1.47084 | 35494 ft | 448 kts | 335° |
| 2026-04-28 17:14 | 43.45308 | 1.45633 | 35643 ft | 446 kts | 335° |
| 2026-04-28 17:14 | 43.48187 | 1.43802 | 35811 ft | 445 kts | 335° |
| 2026-04-28 17:15 | 43.50994 | 1.42015 | 35965 ft | 443 kts | 335° |
| 2026-04-28 17:15 | 43.53786 | 1.40227 | 36107 ft | 442 kts | 334° |
| 2026-04-28 17:15 | 43.56577 | 1.38432 | 36239 ft | 441 kts | 334° |
| 2026-04-28 17:15 | 43.59327 | 1.36660 | 36364 ft | 441 kts | 334° |
| 2026-04-28 17:16 | 43.62107 | 1.34867 | 36479 ft | 440 kts | 334° |
| 2026-04-28 17:16 | 43.64882 | 1.33078 | 36589 ft | 440 kts | 334° |
| 2026-04-28 17:16 | 43.67656 | 1.31289 | 36698 ft | 440 kts | 334° |
| 2026-04-28 17:16 | 43.70423 | 1.29472 | 36789 ft | 439 kts | 334° |
| 2026-04-28 17:17 | 43.75912 | 1.25740 | 36972 ft | 439 kts | 334° |
| 2026-04-28 17:17 | 43.81568 | 1.22530 | 37137 ft | 440 kts | 340° |
| 2026-04-28 17:18 | 43.87307 | 1.19706 | 37286 ft | 440 kts | 340° |
| 2026-04-28 17:18 | 43.93074 | 1.16820 | 37428 ft | 440 kts | 339° |
| 2026-04-28 17:19 | 43.98834 | 1.13848 | 37572 ft | 444 kts | 339° |
| 2026-04-28 17:19 | 44.04664 | 1.10794 | 37753 ft | 449 kts | 339° |
| 2026-04-28 17:20 | 44.07596 | 1.09252 | 37877 ft | 451 kts | 339° |
| 2026-04-28 17:20 | 44.09534 | 1.08233 | 38030 ft | 450 kts | 339° |
| 2026-04-28 17:20 | 44.16425 | 1.04605 | 38001 ft | 459 kts | 339° |
| 2026-04-28 17:21 | 44.22441 | 1.01435 | 38010 ft | 464 kts | 339° |
| 2026-04-28 17:22 | 44.30982 | 0.96861 | 32048 ft | 190 kts | 334° |
| 2026-04-28 17:22 | 44.30977 | 0.96848 | 17135 ft | 116 kts | 7° |
| 2026-04-28 17:22 | 44.33235 | 0.97527 | 7806 ft | 449 kts | 16° |
| 2026-04-28 17:23 | 44.38411 | 1.00387 | 3690 ft | 394 kts | 34° |
| 2026-04-28 17:23 | 44.40455 | 1.02409 | 3469 ft | 319 kts | 38° |
| 2026-04-28 17:23 | 44.41624 | 1.04290 | 4830 ft | 219 kts | 60° |
| 2026-04-28 17:23 | 44.42411 | 1.06214 | 2948 ft | 259 kts | 62° |
| 2026-04-28 17:24 | 44.43131 | 1.08351 | 2603 ft | 221 kts | 70° |
| 2026-04-28 17:24 | 44.43480 | 1.10259 | 2510 ft | 179 kts | 86° |
| 2026-04-28 17:24 | 44.43667 | 1.11981 | 1932 ft | 179 kts | 81° |
| 2026-04-28 17:24 | 44.43864 | 1.13730 | 1252 ft | 184 kts | 83° |
| 2026-04-28 17:25 | 44.44042 | 1.15471 | 976 ft | 168 kts | 79° |
| 2026-04-28 17:25 | 44.44419 | 1.17813 | 795 ft | 41 kts | 73° |
| 2026-04-28 17:25 | 44.44478 | 1.18078 | 812 ft | 7 kts | 73° |
| 2026-04-28 17:26 | 44.44479 | 1.18081 | 812 ft | 0 kts | 73° |